sensor_id;sensor_type;location;lat;lon;timestamp;P1;durP1;ratioP1;P2;durP2;ratioP2
76574;SDS011;65439;50.948;6.988;2023-03-01T00:00:37;7.80;;;5.32;;
76574;SDS011;65439;50.948;6.988;2023-03-01T00:03:02;8.95;;;5.53;;
76574;SDS011;65439;50.948;6.988;2023-03-01T00:05:28;11.20;;;6.45;;
76574;SDS011;65439;50.948;6.988;2023-03-01T00:07:53;9.23;;;6.00;;
76574;SDS011;65439;50.948;6.988;2023-03-01T00:10:18;10.57;;;7.25;;
76574;SDS011;65439;50.948;6.988;2023-03-01T00:12:44;9.27;;;5.57;;
76574;SDS011;65439;50.948;6.988;2023-03-01T00:15:09;8.83;;;5.70;;
76574;SDS011;65439;50.948;6.988;2023-03-01T00:17:34;9.02;;;5.68;;
76574;SDS011;65439;50.948;6.988;2023-03-01T00:20:00;8.88;;;5.82;;
76574;SDS011;65439;50.948;6.988;2023-03-01T00:22:26;8.05;;;5.75;;
76574;SDS011;65439;50.948;6.988;2023-03-01T00:24:53;10.75;;;6.13;;
76574;SDS011;65439;50.948;6.988;2023-03-01T00:27:18;13.37;;;6.47;;
76574;SDS011;65439;50.948;6.988;2023-03-01T00:29:43;10.77;;;5.87;;
76574;SDS011;65439;50.948;6.988;2023-03-01T00:32:09;7.53;;;5.90;;
76574;SDS011;65439;50.948;6.988;2023-03-01T00:34:34;11.37;;;6.53;;
76574;SDS011;65439;50.948;6.988;2023-03-01T00:36:59;10.77;;;6.70;;
76574;SDS011;65439;50.948;6.988;2023-03-01T00:39:30;11.77;;;7.63;;
76574;SDS011;65439;50.948;6.988;2023-03-01T00:41:55;14.43;;;7.63;;
76574;SDS011;65439;50.948;6.988;2023-03-01T00:44:21;8.60;;;6.13;;
76574;SDS011;65439;50.948;6.988;2023-03-01T00:46:46;10.50;;;7.15;;
76574;SDS011;65439;50.948;6.988;2023-03-01T00:49:12;10.70;;;6.63;;
76574;SDS011;65439;50.948;6.988;2023-03-01T00:51:38;8.07;;;5.25;;
76574;SDS011;65439;50.948;6.988;2023-03-01T00:54:07;9.02;;;6.15;;
76574;SDS011;65439;50.948;6.988;2023-03-01T00:56:33;10.35;;;5.97;;
76574;SDS011;65439;50.948;6.988;2023-03-01T00:58:59;8.13;;;5.50;;
76574;SDS011;65439;50.948;6.988;2023-03-01T01:01:25;7.05;;;5.45;;
76574;SDS011;65439;50.948;6.988;2023-03-01T01:04:04;11.43;;;7.35;;
76574;SDS011;65439;50.948;6.988;2023-03-01T01:06:35;11.32;;;5.97;;
76574;SDS011;65439;50.948;6.988;2023-03-01T01:09:02;6.82;;;4.25;;
76574;SDS011;65439;50.948;6.988;2023-03-01T01:11:29;8.15;;;5.45;;
76574;SDS011;65439;50.948;6.988;2023-03-01T01:13:55;7.90;;;5.00;;
76574;SDS011;65439;50.948;6.988;2023-03-01T01:16:22;9.25;;;5.40;;
76574;SDS011;65439;50.948;6.988;2023-03-01T01:18:48;9.30;;;6.10;;
76574;SDS011;65439;50.948;6.988;2023-03-01T01:21:14;8.93;;;6.22;;
76574;SDS011;65439;50.948;6.988;2023-03-01T01:23:42;11.90;;;6.35;;
76574;SDS011;65439;50.948;6.988;2023-03-01T01:26:09;8.13;;;5.63;;
76574;SDS011;65439;50.948;6.988;2023-03-01T01:28:37;9.00;;;6.70;;
76574;SDS011;65439;50.948;6.988;2023-03-01T01:31:02;10.35;;;7.25;;
76574;SDS011;65439;50.948;6.988;2023-03-01T01:33:28;12.95;;;6.32;;
76574;SDS011;65439;50.948;6.988;2023-03-01T01:35:53;9.83;;;5.27;;
76574;SDS011;65439;50.948;6.988;2023-03-01T01:38:19;9.70;;;6.38;;
76574;SDS011;65439;50.948;6.988;2023-03-01T01:40:45;9.60;;;6.07;;
76574;SDS011;65439;50.948;6.988;2023-03-01T01:43:15;10.60;;;6.15;;
76574;SDS011;65439;50.948;6.988;2023-03-01T01:45:42;8.35;;;6.30;;
76574;SDS011;65439;50.948;6.988;2023-03-01T01:48:10;7.93;;;6.32;;
76574;SDS011;65439;50.948;6.988;2023-03-01T01:50:39;7.88;;;5.32;;
76574;SDS011;65439;50.948;6.988;2023-03-01T01:53:17;9.90;;;5.75;;
76574;SDS011;65439;50.948;6.988;2023-03-01T01:55:45;10.25;;;5.93;;
76574;SDS011;65439;50.948;6.988;2023-03-01T01:58:14;9.20;;;6.80;;
76574;SDS011;65439;50.948;6.988;2023-03-01T02:00:41;9.75;;;6.50;;
76574;SDS011;65439;50.948;6.988;2023-03-01T02:03:08;12.43;;;6.43;;
76574;SDS011;65439;50.948;6.988;2023-03-01T02:05:46;8.50;;;6.82;;
76574;SDS011;65439;50.948;6.988;2023-03-01T02:08:15;9.98;;;6.70;;
76574;SDS011;65439;50.948;6.988;2023-03-01T02:10:42;6.57;;;5.07;;
76574;SDS011;65439;50.948;6.988;2023-03-01T02:13:08;10.35;;;6.13;;
76574;SDS011;65439;50.948;6.988;2023-03-01T02:15:34;10.60;;;6.25;;
76574;SDS011;65439;50.948;6.988;2023-03-01T02:18:00;9.77;;;6.22;;
76574;SDS011;65439;50.948;6.988;2023-03-01T02:23:29;10.75;;;6.55;;
76574;SDS011;65439;50.948;6.988;2023-03-01T02:29:14;10.95;;;6.18;;
76574;SDS011;65439;50.948;6.988;2023-03-01T02:31:40;9.60;;;5.43;;
76574;SDS011;65439;50.948;6.988;2023-03-01T02:34:09;10.52;;;6.68;;
76574;SDS011;65439;50.948;6.988;2023-03-01T02:36:53;8.07;;;5.93;;
76574;SDS011;65439;50.948;6.988;2023-03-01T02:39:22;9.88;;;6.55;;
76574;SDS011;65439;50.948;6.988;2023-03-01T02:41:51;11.27;;;7.93;;
76574;SDS011;65439;50.948;6.988;2023-03-01T02:44:17;9.30;;;6.65;;
76574;SDS011;65439;50.948;6.988;2023-03-01T02:46:47;10.77;;;6.47;;
76574;SDS011;65439;50.948;6.988;2023-03-01T02:49:27;12.10;;;7.10;;
76574;SDS011;65439;50.948;6.988;2023-03-01T02:52:01;11.52;;;7.10;;
76574;SDS011;65439;50.948;6.988;2023-03-01T02:54:40;8.30;;;6.00;;
76574;SDS011;65439;50.948;6.988;2023-03-01T02:57:23;13.80;;;6.97;;
76574;SDS011;65439;50.948;6.988;2023-03-01T02:59:49;12.13;;;7.22;;
76574;SDS011;65439;50.948;6.988;2023-03-01T03:02:26;10.63;;;7.22;;
76574;SDS011;65439;50.948;6.988;2023-03-01T03:05:03;11.35;;;6.80;;
76574;SDS011;65439;50.948;6.988;2023-03-01T03:07:40;11.82;;;6.68;;
76574;SDS011;65439;50.948;6.988;2023-03-01T03:10:08;13.15;;;7.15;;
76574;SDS011;65439;50.948;6.988;2023-03-01T03:12:36;9.02;;;6.40;;
76574;SDS011;65439;50.948;6.988;2023-03-01T03:15:02;11.02;;;8.52;;
76574;SDS011;65439;50.948;6.988;2023-03-01T03:17:33;11.82;;;7.13;;
76574;SDS011;65439;50.948;6.988;2023-03-01T03:19:59;10.82;;;6.88;;
76574;SDS011;65439;50.948;6.988;2023-03-01T03:22:24;10.67;;;6.77;;
76574;SDS011;65439;50.948;6.988;2023-03-01T03:24:49;10.80;;;5.90;;
76574;SDS011;65439;50.948;6.988;2023-03-01T03:27:15;9.00;;;6.23;;
76574;SDS011;65439;50.948;6.988;2023-03-01T03:29:40;9.00;;;6.27;;
76574;SDS011;65439;50.948;6.988;2023-03-01T03:32:05;10.77;;;6.23;;
76574;SDS011;65439;50.948;6.988;2023-03-01T03:34:31;10.53;;;6.97;;
76574;SDS011;65439;50.948;6.988;2023-03-01T03:36:56;13.50;;;6.90;;
76574;SDS011;65439;50.948;6.988;2023-03-01T03:39:24;14.05;;;7.85;;
76574;SDS011;65439;50.948;6.988;2023-03-01T03:41:50;11.75;;;7.05;;
76574;SDS011;65439;50.948;6.988;2023-03-01T03:44:15;11.17;;;7.17;;
76574;SDS011;65439;50.948;6.988;2023-03-01T03:46:40;13.00;;;7.77;;
76574;SDS011;65439;50.948;6.988;2023-03-01T03:49:06;11.20;;;7.40;;
76574;SDS011;65439;50.948;6.988;2023-03-01T03:51:31;13.63;;;7.97;;
76574;SDS011;65439;50.948;6.988;2023-03-01T03:53:56;12.93;;;7.80;;
76574;SDS011;65439;50.948;6.988;2023-03-01T03:56:22;9.73;;;7.43;;
76574;SDS011;65439;50.948;6.988;2023-03-01T03:58:50;11.68;;;7.55;;
76574;SDS011;65439;50.948;6.988;2023-03-01T04:01:16;9.18;;;6.60;;
76574;SDS011;65439;50.948;6.988;2023-03-01T04:03:41;9.93;;;6.80;;
76574;SDS011;65439;50.948;6.988;2023-03-01T04:06:11;11.68;;;8.27;;
76574;SDS011;65439;50.948;6.988;2023-03-01T04:08:36;11.88;;;8.27;;
76574;SDS011;65439;50.948;6.988;2023-03-01T04:11:02;14.40;;;7.83;;
76574;SDS011;65439;50.948;6.988;2023-03-01T04:13:49;13.45;;;7.53;;
76574;SDS011;65439;50.948;6.988;2023-03-01T04:16:15;11.30;;;7.60;;
76574;SDS011;65439;50.948;6.988;2023-03-01T04:18:40;11.00;;;6.90;;
76574;SDS011;65439;50.948;6.988;2023-03-01T04:21:06;14.93;;;8.63;;
76574;SDS011;65439;50.948;6.988;2023-03-01T04:23:31;11.97;;;7.73;;
76574;SDS011;65439;50.948;6.988;2023-03-01T04:25:57;11.40;;;6.73;;
76574;SDS011;65439;50.948;6.988;2023-03-01T04:28:28;10.63;;;7.80;;
76574;SDS011;65439;50.948;6.988;2023-03-01T04:31:01;11.45;;;7.57;;
76574;SDS011;65439;50.948;6.988;2023-03-01T04:33:38;12.20;;;8.13;;
76574;SDS011;65439;50.948;6.988;2023-03-01T04:36:04;12.23;;;8.20;;
76574;SDS011;65439;50.948;6.988;2023-03-01T04:38:30;11.48;;;7.43;;
76574;SDS011;65439;50.948;6.988;2023-03-01T04:40:55;15.57;;;9.00;;
76574;SDS011;65439;50.948;6.988;2023-03-01T04:43:21;14.23;;;8.37;;
76574;SDS011;65439;50.948;6.988;2023-03-01T04:45:46;13.88;;;8.40;;
76574;SDS011;65439;50.948;6.988;2023-03-01T04:48:11;12.87;;;8.20;;
76574;SDS011;65439;50.948;6.988;2023-03-01T04:50:37;13.63;;;8.33;;
76574;SDS011;65439;50.948;6.988;2023-03-01T04:53:02;17.23;;;9.37;;
76574;SDS011;65439;50.948;6.988;2023-03-01T04:55:28;12.40;;;8.27;;
76574;SDS011;65439;50.948;6.988;2023-03-01T04:57:54;13.68;;;8.63;;
76574;SDS011;65439;50.948;6.988;2023-03-01T05:00:20;14.43;;;7.60;;
76574;SDS011;65439;50.948;6.988;2023-03-01T05:02:50;12.52;;;8.15;;
76574;SDS011;65439;50.948;6.988;2023-03-01T05:05:18;13.32;;;7.95;;
76574;SDS011;65439;50.948;6.988;2023-03-01T05:07:44;11.43;;;7.53;;
76574;SDS011;65439;50.948;6.988;2023-03-01T05:10:10;12.43;;;9.17;;
76574;SDS011;65439;50.948;6.988;2023-03-01T05:12:35;13.43;;;8.23;;
76574;SDS011;65439;50.948;6.988;2023-03-01T05:15:02;13.98;;;7.78;;
76574;SDS011;65439;50.948;6.988;2023-03-01T05:17:31;12.93;;;9.40;;
76574;SDS011;65439;50.948;6.988;2023-03-01T05:19:58;13.35;;;7.60;;
76574;SDS011;65439;50.948;6.988;2023-03-01T05:22:24;10.68;;;8.07;;
76574;SDS011;65439;50.948;6.988;2023-03-01T05:24:50;10.70;;;6.80;;
76574;SDS011;65439;50.948;6.988;2023-03-01T05:27:15;10.23;;;7.20;;
76574;SDS011;65439;50.948;6.988;2023-03-01T05:29:40;15.33;;;8.40;;
76574;SDS011;65439;50.948;6.988;2023-03-01T05:32:06;12.90;;;7.97;;
76574;SDS011;65439;50.948;6.988;2023-03-01T05:34:33;12.47;;;8.47;;
76574;SDS011;65439;50.948;6.988;2023-03-01T05:36:59;14.05;;;9.50;;
76574;SDS011;65439;50.948;6.988;2023-03-01T05:39:25;12.52;;;6.95;;
76574;SDS011;65439;50.948;6.988;2023-03-01T05:41:52;15.40;;;8.35;;
76574;SDS011;65439;50.948;6.988;2023-03-01T05:44:18;13.15;;;8.75;;
76574;SDS011;65439;50.948;6.988;2023-03-01T05:46:44;14.23;;;7.80;;
76574;SDS011;65439;50.948;6.988;2023-03-01T05:49:09;12.07;;;7.47;;
76574;SDS011;65439;50.948;6.988;2023-03-01T05:51:35;13.85;;;8.27;;
76574;SDS011;65439;50.948;6.988;2023-03-01T05:54:01;13.50;;;7.95;;
76574;SDS011;65439;50.948;6.988;2023-03-01T05:56:26;13.73;;;8.60;;
76574;SDS011;65439;50.948;6.988;2023-03-01T05:58:51;18.10;;;9.87;;
76574;SDS011;65439;50.948;6.988;2023-03-01T06:01:16;12.97;;;7.57;;
76574;SDS011;65439;50.948;6.988;2023-03-01T06:03:42;13.77;;;8.03;;
76574;SDS011;65439;50.948;6.988;2023-03-01T06:06:07;16.73;;;8.90;;
76574;SDS011;65439;50.948;6.988;2023-03-01T06:08:32;14.17;;;9.37;;
76574;SDS011;65439;50.948;6.988;2023-03-01T06:10:58;15.35;;;8.32;;
76574;SDS011;65439;50.948;6.988;2023-03-01T06:13:23;14.37;;;8.90;;
76574;SDS011;65439;50.948;6.988;2023-03-01T06:15:49;13.65;;;8.02;;
76574;SDS011;65439;50.948;6.988;2023-03-01T06:18:14;13.20;;;8.85;;
76574;SDS011;65439;50.948;6.988;2023-03-01T06:20:39;14.55;;;8.23;;
76574;SDS011;65439;50.948;6.988;2023-03-01T06:23:05;15.80;;;7.70;;
76574;SDS011;65439;50.948;6.988;2023-03-01T06:25:30;13.60;;;9.37;;
76574;SDS011;65439;50.948;6.988;2023-03-01T06:27:55;15.38;;;9.65;;
76574;SDS011;65439;50.948;6.988;2023-03-01T06:30:22;14.95;;;9.70;;
76574;SDS011;65439;50.948;6.988;2023-03-01T06:32:48;14.75;;;9.48;;
76574;SDS011;65439;50.948;6.988;2023-03-01T06:35:14;17.77;;;9.68;;
76574;SDS011;65439;50.948;6.988;2023-03-01T06:37:42;18.65;;;9.93;;
76574;SDS011;65439;50.948;6.988;2023-03-01T06:40:09;17.08;;;8.57;;
76574;SDS011;65439;50.948;6.988;2023-03-01T06:42:36;16.80;;;8.35;;
76574;SDS011;65439;50.948;6.988;2023-03-01T06:45:02;18.90;;;9.80;;
76574;SDS011;65439;50.948;6.988;2023-03-01T06:47:29;15.23;;;9.48;;
76574;SDS011;65439;50.948;6.988;2023-03-01T06:49:54;18.13;;;9.53;;
76574;SDS011;65439;50.948;6.988;2023-03-01T06:52:19;13.20;;;9.20;;
76574;SDS011;65439;50.948;6.988;2023-03-01T06:54:45;12.88;;;8.43;;
76574;SDS011;65439;50.948;6.988;2023-03-01T06:57:10;17.97;;;9.23;;
76574;SDS011;65439;50.948;6.988;2023-03-01T06:59:35;13.03;;;9.13;;
76574;SDS011;65439;50.948;6.988;2023-03-01T07:02:00;13.30;;;8.80;;
76574;SDS011;65439;50.948;6.988;2023-03-01T07:04:26;14.70;;;8.50;;
76574;SDS011;65439;50.948;6.988;2023-03-01T07:06:53;17.45;;;9.65;;
76574;SDS011;65439;50.948;6.988;2023-03-01T07:09:20;16.85;;;9.68;;
76574;SDS011;65439;50.948;6.988;2023-03-01T07:11:48;17.23;;;10.27;;
76574;SDS011;65439;50.948;6.988;2023-03-01T07:14:14;16.70;;;9.85;;
76574;SDS011;65439;50.948;6.988;2023-03-01T07:16:40;17.30;;;8.98;;
76574;SDS011;65439;50.948;6.988;2023-03-01T07:19:05;18.50;;;8.73;;
76574;SDS011;65439;50.948;6.988;2023-03-01T07:21:31;19.17;;;8.87;;
76574;SDS011;65439;50.948;6.988;2023-03-01T07:23:56;18.58;;;10.20;;
76574;SDS011;65439;50.948;6.988;2023-03-01T07:26:22;14.10;;;8.57;;
76574;SDS011;65439;50.948;6.988;2023-03-01T07:28:47;17.08;;;10.30;;
76574;SDS011;65439;50.948;6.988;2023-03-01T07:31:12;16.67;;;9.37;;
76574;SDS011;65439;50.948;6.988;2023-03-01T07:33:38;18.70;;;9.23;;
76574;SDS011;65439;50.948;6.988;2023-03-01T07:36:03;16.48;;;10.00;;
76574;SDS011;65439;50.948;6.988;2023-03-01T07:38:29;20.42;;;12.07;;
76574;SDS011;65439;50.948;6.988;2023-03-01T07:40:58;16.95;;;9.27;;
76574;SDS011;65439;50.948;6.988;2023-03-01T07:43:25;14.00;;;8.82;;
76574;SDS011;65439;50.948;6.988;2023-03-01T07:45:50;14.37;;;9.70;;
76574;SDS011;65439;50.948;6.988;2023-03-01T07:48:15;22.43;;;9.97;;
76574;SDS011;65439;50.948;6.988;2023-03-01T07:50:40;16.17;;;9.30;;
76574;SDS011;65439;50.948;6.988;2023-03-01T07:53:06;14.17;;;8.87;;
76574;SDS011;65439;50.948;6.988;2023-03-01T07:55:31;12.53;;;9.03;;
76574;SDS011;65439;50.948;6.988;2023-03-01T07:57:56;9.17;;;7.00;;
76574;SDS011;65439;50.948;6.988;2023-03-01T08:00:22;17.37;;;10.23;;
76574;SDS011;65439;50.948;6.988;2023-03-01T08:02:47;14.68;;;9.82;;
76574;SDS011;65439;50.948;6.988;2023-03-01T08:05:12;12.82;;;9.32;;
76574;SDS011;65439;50.948;6.988;2023-03-01T08:07:38;13.95;;;8.80;;
76574;SDS011;65439;50.948;6.988;2023-03-01T08:10:03;15.23;;;9.90;;
76574;SDS011;65439;50.948;6.988;2023-03-01T08:12:29;15.05;;;9.05;;
76574;SDS011;65439;50.948;6.988;2023-03-01T08:14:54;15.55;;;10.45;;
76574;SDS011;65439;50.948;6.988;2023-03-01T08:17:20;17.58;;;9.55;;
76574;SDS011;65439;50.948;6.988;2023-03-01T08:19:45;17.48;;;9.40;;
76574;SDS011;65439;50.948;6.988;2023-03-01T08:22:11;11.93;;;7.20;;
76574;SDS011;65439;50.948;6.988;2023-03-01T08:24:36;17.33;;;10.90;;
76574;SDS011;65439;50.948;6.988;2023-03-01T08:27:01;15.13;;;8.90;;
76574;SDS011;65439;50.948;6.988;2023-03-01T08:29:28;19.27;;;9.55;;
76574;SDS011;65439;50.948;6.988;2023-03-01T08:31:55;11.95;;;7.80;;
76574;SDS011;65439;50.948;6.988;2023-03-01T08:34:20;14.87;;;8.90;;
76574;SDS011;65439;50.948;6.988;2023-03-01T08:36:45;17.07;;;9.53;;
76574;SDS011;65439;50.948;6.988;2023-03-01T08:39:12;15.05;;;9.57;;
76574;SDS011;65439;50.948;6.988;2023-03-01T08:41:39;9.93;;;7.50;;
76574;SDS011;65439;50.948;6.988;2023-03-01T08:44:05;15.73;;;9.60;;
76574;SDS011;65439;50.948;6.988;2023-03-01T08:46:32;11.95;;;8.48;;
76574;SDS011;65439;50.948;6.988;2023-03-01T08:49:04;10.75;;;7.90;;
76574;SDS011;65439;50.948;6.988;2023-03-01T08:51:31;15.05;;;10.00;;
76574;SDS011;65439;50.948;6.988;2023-03-01T08:54:01;15.95;;;8.88;;
76574;SDS011;65439;50.948;6.988;2023-03-01T08:56:27;11.32;;;8.10;;
76574;SDS011;65439;50.948;6.988;2023-03-01T08:58:52;16.20;;;8.63;;
76574;SDS011;65439;50.948;6.988;2023-03-01T09:01:18;12.87;;;8.13;;
76574;SDS011;65439;50.948;6.988;2023-03-01T09:03:45;9.23;;;6.78;;
76574;SDS011;65439;50.948;6.988;2023-03-01T09:06:11;14.55;;;8.40;;
76574;SDS011;65439;50.948;6.988;2023-03-01T09:08:37;13.77;;;9.50;;
76574;SDS011;65439;50.948;6.988;2023-03-01T09:11:05;9.50;;;6.35;;
76574;SDS011;65439;50.948;6.988;2023-03-01T09:13:31;11.48;;;7.57;;
76574;SDS011;65439;50.948;6.988;2023-03-01T09:15:57;14.82;;;9.98;;
76574;SDS011;65439;50.948;6.988;2023-03-01T09:18:23;10.27;;;6.78;;
76574;SDS011;65439;50.948;6.988;2023-03-01T09:20:48;13.68;;;9.15;;
76574;SDS011;65439;50.948;6.988;2023-03-01T09:23:14;14.77;;;8.85;;
76574;SDS011;65439;50.948;6.988;2023-03-01T09:25:39;6.83;;;5.17;;
76574;SDS011;65439;50.948;6.988;2023-03-01T09:28:04;16.35;;;8.48;;
76574;SDS011;65439;50.948;6.988;2023-03-01T09:30:30;16.33;;;10.40;;
76574;SDS011;65439;50.948;6.988;2023-03-01T09:32:58;8.80;;;7.07;;
76574;SDS011;65439;50.948;6.988;2023-03-01T09:35:24;13.85;;;9.18;;
76574;SDS011;65439;50.948;6.988;2023-03-01T09:37:49;14.35;;;7.80;;
76574;SDS011;65439;50.948;6.988;2023-03-01T09:40:16;6.65;;;5.45;;
76574;SDS011;65439;50.948;6.988;2023-03-01T09:42:51;10.00;;;6.90;;
76574;SDS011;65439;50.948;6.988;2023-03-01T09:45:30;14.07;;;8.30;;
76574;SDS011;65439;50.948;6.988;2023-03-01T09:47:58;15.20;;;8.40;;
76574;SDS011;65439;50.948;6.988;2023-03-01T09:50:26;13.05;;;8.90;;
76574;SDS011;65439;50.948;6.988;2023-03-01T09:53:03;11.68;;;6.60;;
76574;SDS011;65439;50.948;6.988;2023-03-01T09:58:29;9.32;;;6.65;;
76574;SDS011;65439;50.948;6.988;2023-03-01T10:00:57;12.85;;;7.20;;
76574;SDS011;65439;50.948;6.988;2023-03-01T10:03:26;18.17;;;8.18;;
76574;SDS011;65439;50.948;6.988;2023-03-01T10:05:58;14.48;;;7.60;;
76574;SDS011;65439;50.948;6.988;2023-03-01T10:08:50;16.05;;;9.20;;
76574;SDS011;65439;50.948;6.988;2023-03-01T10:11:32;10.07;;;7.72;;
76574;SDS011;65439;50.948;6.988;2023-03-01T10:14:05;10.68;;;7.93;;
76574;SDS011;65439;50.948;6.988;2023-03-01T10:16:40;12.05;;;8.10;;
76574;SDS011;65439;50.948;6.988;2023-03-01T10:19:11;11.70;;;7.22;;
76574;SDS011;65439;50.948;6.988;2023-03-01T10:21:43;12.32;;;7.88;;
76574;SDS011;65439;50.948;6.988;2023-03-01T10:24:12;14.88;;;8.30;;
76574;SDS011;65439;50.948;6.988;2023-03-01T10:26:53;11.77;;;8.05;;
76574;SDS011;65439;50.948;6.988;2023-03-01T10:29:23;7.32;;;5.80;;
76574;SDS011;65439;50.948;6.988;2023-03-01T10:31:50;9.90;;;7.18;;
76574;SDS011;65439;50.948;6.988;2023-03-01T10:36:56;13.82;;;7.72;;
76574;SDS011;65439;50.948;6.988;2023-03-01T10:39:24;9.10;;;6.93;;
76574;SDS011;65439;50.948;6.988;2023-03-01T10:42:01;11.73;;;8.55;;
76574;SDS011;65439;50.948;6.988;2023-03-01T10:47:20;11.30;;;7.78;;
76574;SDS011;65439;50.948;6.988;2023-03-01T10:49:52;12.25;;;7.72;;
76574;SDS011;65439;50.948;6.988;2023-03-01T10:52:21;12.70;;;7.88;;
76574;SDS011;65439;50.948;6.988;2023-03-01T10:54:52;13.77;;;8.52;;
76574;SDS011;65439;50.948;6.988;2023-03-01T10:57:30;14.57;;;8.50;;
76574;SDS011;65439;50.948;6.988;2023-03-01T11:00:18;11.32;;;8.18;;
76574;SDS011;65439;50.948;6.988;2023-03-01T11:02:50;14.57;;;8.95;;
76574;SDS011;65439;50.948;6.988;2023-03-01T11:05:36;13.20;;;8.90;;
76574;SDS011;65439;50.948;6.988;2023-03-01T11:08:02;13.85;;;7.97;;
76574;SDS011;65439;50.948;6.988;2023-03-01T11:10:34;6.85;;;5.38;;
76574;SDS011;65439;50.948;6.988;2023-03-01T11:13:14;12.55;;;7.57;;
76574;SDS011;65439;50.948;6.988;2023-03-01T11:15:40;13.77;;;9.23;;
76574;SDS011;65439;50.948;6.988;2023-03-01T11:18:17;14.20;;;7.38;;
76574;SDS011;65439;50.948;6.988;2023-03-01T11:20:45;11.82;;;7.95;;
76574;SDS011;65439;50.948;6.988;2023-03-01T11:23:12;13.13;;;7.97;;
76574;SDS011;65439;50.948;6.988;2023-03-01T11:25:42;13.85;;;9.13;;
76574;SDS011;65439;50.948;6.988;2023-03-01T11:28:13;11.68;;;7.97;;
76574;SDS011;65439;50.948;6.988;2023-03-01T11:30:44;13.32;;;9.02;;
76574;SDS011;65439;50.948;6.988;2023-03-01T11:36:01;10.18;;;7.72;;
76574;SDS011;65439;50.948;6.988;2023-03-01T11:38:40;14.05;;;8.88;;
76574;SDS011;65439;50.948;6.988;2023-03-01T11:46:59;13.88;;;8.05;;
76574;SDS011;65439;50.948;6.988;2023-03-01T11:55:29;13.00;;;7.88;;
76574;SDS011;65439;50.948;6.988;2023-03-01T12:01:17;11.30;;;8.13;;
76574;SDS011;65439;50.948;6.988;2023-03-01T12:14:51;10.82;;;7.43;;
76574;SDS011;65439;50.948;6.988;2023-03-01T12:20:05;11.00;;;7.90;;
76574;SDS011;65439;50.948;6.988;2023-03-01T12:22:50;10.05;;;7.90;;
76574;SDS011;65439;50.948;6.988;2023-03-01T12:32:00;11.50;;;8.95;;
76574;SDS011;65439;50.948;6.988;2023-03-01T12:48:10;9.05;;;7.00;;
76574;SDS011;65439;50.948;6.988;2023-03-01T12:50:50;13.50;;;8.30;;
76574;SDS011;65439;50.948;6.988;2023-03-01T12:53:20;6.45;;;4.82;;
76574;SDS011;65439;50.948;6.988;2023-03-01T12:55:48;12.15;;;8.88;;
76574;SDS011;65439;50.948;6.988;2023-03-01T13:01:02;11.63;;;8.20;;
76574;SDS011;65439;50.948;6.988;2023-03-01T13:06:29;14.85;;;8.07;;
76574;SDS011;65439;50.948;6.988;2023-03-01T13:09:10;12.57;;;8.38;;
76574;SDS011;65439;50.948;6.988;2023-03-01T13:11:45;10.40;;;6.18;;
76574;SDS011;65439;50.948;6.988;2023-03-01T13:16:48;10.95;;;7.53;;
76574;SDS011;65439;50.948;6.988;2023-03-01T13:19:15;11.85;;;7.03;;
76574;SDS011;65439;50.948;6.988;2023-03-01T13:21:45;11.38;;;7.13;;
76574;SDS011;65439;50.948;6.988;2023-03-01T13:29:32;9.93;;;6.20;;
76574;SDS011;65439;50.948;6.988;2023-03-01T13:32:18;12.45;;;7.53;;
76574;SDS011;65439;50.948;6.988;2023-03-01T13:34:46;10.68;;;7.05;;
76574;SDS011;65439;50.948;6.988;2023-03-01T13:37:20;11.77;;;8.75;;
76574;SDS011;65439;50.948;6.988;2023-03-01T13:39:48;12.23;;;7.68;;
76574;SDS011;65439;50.948;6.988;2023-03-01T13:44:59;9.43;;;6.93;;
76574;SDS011;65439;50.948;6.988;2023-03-01T13:47:25;13.07;;;8.23;;
76574;SDS011;65439;50.948;6.988;2023-03-01T13:57:42;9.20;;;7.22;;
76574;SDS011;65439;50.948;6.988;2023-03-01T14:03:02;14.00;;;6.95;;
76574;SDS011;65439;50.948;6.988;2023-03-01T14:05:35;11.68;;;7.22;;
76574;SDS011;65439;50.948;6.988;2023-03-01T14:08:01;11.13;;;6.95;;
76574;SDS011;65439;50.948;6.988;2023-03-01T14:10:43;12.45;;;7.60;;
76574;SDS011;65439;50.948;6.988;2023-03-01T14:13:23;9.52;;;7.22;;
76574;SDS011;65439;50.948;6.988;2023-03-01T14:16:01;9.45;;;6.30;;
76574;SDS011;65439;50.948;6.988;2023-03-01T14:18:35;10.30;;;6.55;;
76574;SDS011;65439;50.948;6.988;2023-03-01T14:21:08;10.00;;;6.25;;
76574;SDS011;65439;50.948;6.988;2023-03-01T14:23:33;9.63;;;6.03;;
76574;SDS011;65439;50.948;6.988;2023-03-01T14:26:00;9.00;;;6.18;;
76574;SDS011;65439;50.948;6.988;2023-03-01T14:30:55;8.13;;;5.95;;
76574;SDS011;65439;50.948;6.988;2023-03-01T14:33:35;8.55;;;6.30;;
76574;SDS011;65439;50.948;6.988;2023-03-01T14:36:08;11.43;;;5.22;;
76574;SDS011;65439;50.948;6.988;2023-03-01T14:38:36;8.27;;;6.47;;
76574;SDS011;65439;50.948;6.988;2023-03-01T14:41:07;12.07;;;8.27;;
76574;SDS011;65439;50.948;6.988;2023-03-01T14:43:44;10.70;;;7.72;;
76574;SDS011;65439;50.948;6.988;2023-03-01T14:46:23;14.02;;;8.70;;
76574;SDS011;65439;50.948;6.988;2023-03-01T14:48:56;6.25;;;4.53;;
76574;SDS011;65439;50.948;6.988;2023-03-01T14:51:26;11.68;;;6.78;;
76574;SDS011;65439;50.948;6.988;2023-03-01T14:53:51;11.05;;;8.13;;
76574;SDS011;65439;50.948;6.988;2023-03-01T14:56:17;11.93;;;8.35;;
76574;SDS011;65439;50.948;6.988;2023-03-01T14:58:43;11.27;;;7.38;;
76574;SDS011;65439;50.948;6.988;2023-03-01T15:01:10;13.00;;;6.57;;
76574;SDS011;65439;50.948;6.988;2023-03-01T15:03:40;12.77;;;8.73;;
76574;SDS011;65439;50.948;6.988;2023-03-01T15:06:19;7.15;;;5.00;;
76574;SDS011;65439;50.948;6.988;2023-03-01T15:08:46;11.45;;;7.65;;
76574;SDS011;65439;50.948;6.988;2023-03-01T15:13:39;8.43;;;5.63;;
76574;SDS011;65439;50.948;6.988;2023-03-01T15:16:06;9.02;;;6.93;;
76574;SDS011;65439;50.948;6.988;2023-03-01T15:18:46;12.95;;;8.20;;
76574;SDS011;65439;50.948;6.988;2023-03-01T15:21:21;9.77;;;7.03;;
76574;SDS011;65439;50.948;6.988;2023-03-01T15:24:00;10.05;;;6.72;;
76574;SDS011;65439;50.948;6.988;2023-03-01T15:26:45;8.30;;;6.50;;
76574;SDS011;65439;50.948;6.988;2023-03-01T15:29:19;8.38;;;5.60;;
76574;SDS011;65439;50.948;6.988;2023-03-01T15:31:58;9.70;;;6.55;;
76574;SDS011;65439;50.948;6.988;2023-03-01T15:34:29;11.48;;;7.55;;
76574;SDS011;65439;50.948;6.988;2023-03-01T15:36:56;9.77;;;6.68;;
76574;SDS011;65439;50.948;6.988;2023-03-01T15:41:55;9.20;;;5.95;;
76574;SDS011;65439;50.948;6.988;2023-03-01T15:44:29;10.55;;;7.45;;
76574;SDS011;65439;50.948;6.988;2023-03-01T15:46:56;13.80;;;7.50;;
76574;SDS011;65439;50.948;6.988;2023-03-01T15:49:38;10.10;;;7.30;;
76574;SDS011;65439;50.948;6.988;2023-03-01T15:52:10;11.70;;;6.10;;
76574;SDS011;65439;50.948;6.988;2023-03-01T15:54:38;9.98;;;6.40;;
76574;SDS011;65439;50.948;6.988;2023-03-01T15:57:05;9.80;;;6.75;;
76574;SDS011;65439;50.948;6.988;2023-03-01T15:59:40;8.68;;;5.55;;
76574;SDS011;65439;50.948;6.988;2023-03-01T16:02:10;9.70;;;6.68;;
76574;SDS011;65439;50.948;6.988;2023-03-01T16:04:37;9.73;;;5.22;;
76574;SDS011;65439;50.948;6.988;2023-03-01T16:07:06;8.80;;;5.25;;
76574;SDS011;65439;50.948;6.988;2023-03-01T16:09:31;11.00;;;7.15;;
76574;SDS011;65439;50.948;6.988;2023-03-01T16:11:57;12.05;;;6.90;;
76574;SDS011;65439;50.948;6.988;2023-03-01T16:14:25;12.40;;;6.78;;
76574;SDS011;65439;50.948;6.988;2023-03-01T16:16:50;7.30;;;5.25;;
76574;SDS011;65439;50.948;6.988;2023-03-01T16:19:15;10.67;;;5.93;;
76574;SDS011;65439;50.948;6.988;2023-03-01T16:21:41;10.05;;;6.93;;
76574;SDS011;65439;50.948;6.988;2023-03-01T16:24:07;10.32;;;6.75;;
76574;SDS011;65439;50.948;6.988;2023-03-01T16:26:33;8.60;;;5.35;;